Orlando, Florida
Current Conditions -  °F | °C
As of 8:53 AM on Thursday 18 Dec 2014 (Local Time) from KORL Reporting Station
Clear Clear  
Wind Chill: 12°   Ceiling: Unl
Heat Index: 12°   Visibility: 10mi
Dew Point:   Wind: 5mph
Humidity: 75%   Direction: 330°NNW
Pressure: 30.18"   Gusts: NA
Location:  28.54°N, 81.38°W
Report Text: KORL 181353Z 33004KT 10SM CLR 12/08 A3018 RMK AO2 SLP222 T01220078
Loading
Personal Weather Stations






























Interactive Weather Map New forecast layout! Learn more

10-Day Weather Forecast

Advertisements
Track Severe Weather on mobile